Irvington, Iowa
Current Conditions -  °F | °C
As of 6:35 PM on Tuesday 25 Nov 2014 (Local Time) from KAXA Reporting Station
Clear Clear  
Wind Chill: -8°   Ceiling: Unl
Heat Index: -2°   Visibility: 10mi
Dew Point: -10°   Wind: 14mph
Humidity: 55%   Direction: 150°SSE
Pressure: 29.98"   Gusts: NA
Location:  42.991°N, 94.0912°W
Report Text: KAXA 260035Z AUTO 15012KT 10SM CLR M02/M10 A2998 RMK AO2
Loading
Personal Weather Stations






























Interactive Weather Map New forecast layout! Learn more

10-Day Weather Forecast

Advertisements
Track Severe Weather on mobile